Time;durP1;ratioP1;P1;durP2;ratioP2;P2;SDS_P1;SDS_P2;PMS_P1;PMS_P2;Temp;Humidity;BMP_temperature;BMP_pressure;BME280_temperature;BME280_humidity;BME280_pressure;Samples;Min_cycle;Max_cycle;Signal;HPM_P1;HPM_P2
2022/01/12 00:00:32;;;;;;;6.53;3.90;;;0.40;55.10;;;;;;5104232;28;35527;-76
2022/01/12 00:02:58;;;;;;;8.15;3.38;;;0.40;55.10;;;;;;5104400;28;34159;-76
2022/01/12 00:05:24;;;;;;;8.63;3.33;;;0.40;54.90;;;;;;5105344;27;34189;-77
2022/01/12 00:07:51;;;;;;;15.35;3.25;;;0.40;54.80;;;;;;5105208;27;34407;-77
2022/01/12 00:10:18;;;;;;;6.70;3.47;;;0.30;54.90;;;;;;5086673;28;35798;-77
2022/01/12 00:12:45;;;;;;;5.78;3.63;;;0.30;54.80;;;;;;5104022;28;34352;-76
2022/01/12 00:15:11;;;;;;;7.63;4.18;;;0.30;55.00;;;;;;5103543;28;34364;-76
2022/01/12 00:17:37;;;;;;;5.45;3.58;;;0.20;54.80;;;;;;5086808;28;34181;-77
2022/01/12 00:20:04;;;;;;;6.13;4.15;;;0.20;54.90;;;;;;5087032;28;35965;-77
2022/01/12 00:22:32;;;;;;;5.43;3.42;;;0.20;55.00;;;;;;5086604;28;34172;-76
2022/01/12 00:25:12;;;;;;;11.40;3.72;;;0.20;55.10;;;;;;5103789;28;34247;-76
2022/01/12 00:33:10;;;;;;;5.97;3.50;;;0.10;54.90;;;;;;5104413;27;34211;-76
2022/01/12 00:35:39;;;;;;;6.38;3.17;;;0.10;55.10;;;;;;5103829;28;34248;-76
2022/01/12 00:38:05;;;;;;;4.82;3.47;;;0.10;54.90;;;;;;5102349;28;34205;-76
2022/01/12 00:40:31;;;;;;;8.77;4.00;;;0.10;54.70;;;;;;5104484;27;35212;-76
2022/01/12 00:42:57;;;;;;;5.90;4.05;;;0.10;54.80;;;;;;5086681;28;34093;-76
2022/01/12 00:45:24;;;;;;;5.22;3.75;;;0.10;54.90;;;;;;5103551;28;34130;-77
2022/01/12 00:47:50;;;;;;;7.63;4.07;;;0.10;55.00;;;;;;5104706;27;34168;-76
2022/01/12 00:50:17;;;;;;;16.92;4.18;;;0.10;55.00;;;;;;5103108;28;35448;-77
2022/01/12 00:52:43;;;;;;;6.45;3.78;;;0.00;55.10;;;;;;5104535;28;34232;-77
2022/01/12 00:55:09;;;;;;;15.18;4.22;;;0.10;55.40;;;;;;5086491;28;34377;-76
2022/01/12 00:57:35;;;;;;;7.93;4.35;;;0.10;55.50;;;;;;5086030;28;34235;-77
2022/01/12 01:00:03;;;;;;;10.18;3.40;;;0.10;55.50;;;;;;5103079;28;36623;-76
2022/01/12 01:02:29;;;;;;;4.88;3.97;;;0.10;55.50;;;;;;5104566;27;34235;-76
2022/01/12 01:04:56;;;;;;;4.68;3.22;;;0.20;55.10;;;;;;5104309;28;34415;-76
2022/01/12 01:07:22;;;;;;;4.28;3.47;;;0.20;54.80;;;;;;5104152;27;34474;-76
2022/01/12 01:09:58;;;;;;;5.78;4.10;;;0.20;54.80;;;;;;5102830;28;36719;-76
2022/01/12 01:12:24;;;;;;;7.18;3.58;;;0.20;54.80;;;;;;5087774;28;34214;-76
2022/01/12 01:25:43;;;;;;;6.18;3.30;;;0.30;55.00;;;;;;5103513;27;34237;-76
2022/01/12 01:28:10;;;;;;;4.85;3.17;;;0.20;54.60;;;;;;5103144;28;34554;-76
2022/01/12 01:30:38;;;;;;;5.20;3.42;;;0.20;54.50;;;;;;5085332;28;35944;-76
2022/01/12 01:33:07;;;;;;;7.05;3.88;;;0.20;54.30;;;;;;5069696;28;34178;-76
2022/01/12 01:35:36;;;;;;;4.60;3.20;;;0.20;54.30;;;;;;5086110;28;34133;-76
2022/01/12 01:38:04;;;;;;;6.70;3.17;;;0.20;54.50;;;;;;5069400;28;34178;-76
2022/01/12 01:40:33;;;;;;;6.18;3.45;;;0.20;54.70;;;;;;5102093;28;35932;-76
2022/01/12 01:43:17;;;;;;;6.65;4.13;;;0.20;54.60;;;;;;5069055;28;34179;-76
2022/01/12 01:53:48;;;;;;;5.78;3.70;;;0.10;54.80;;;;;;5102621;28;34176;-76
2022/01/12 01:56:15;;;;;;;5.43;3.85;;;0.10;54.90;;;;;;5102284;28;34422;-76
2022/01/12 01:58:41;;;;;;;10.30;4.15;;;0.00;54.60;;;;;;5102403;28;34576;-76
2022/01/12 02:01:07;;;;;;;9.65;3.53;;;0.00;54.70;;;;;;5084671;28;35647;-76
2022/01/12 02:03:34;;;;;;;7.32;3.75;;;-0.10;54.70;;;;;;5085577;28;34217;-76
2022/01/12 02:06:00;;;;;;;4.72;3.45;;;-0.10;54.80;;;;;;5103555;27;34087;-76
2022/01/12 02:08:27;;;;;;;13.50;4.05;;;-0.10;55.10;;;;;;5103175;28;34043;-76
2022/01/12 02:10:55;;;;;;;8.73;3.85;;;-0.10;55.10;;;;;;5101517;28;36415;-76
2022/01/12 02:13:21;;;;;;;8.43;3.88;;;-0.10;55.20;;;;;;5088078;27;34271;-76
2022/01/12 02:15:48;;;;;;;4.55;3.55;;;0.00;55.20;;;;;;5105408;27;34236;-76
2022/01/12 02:18:22;;;;;;;6.70;3.78;;;-0.10;55.20;;;;;;5105635;27;34170;-76
2022/01/12 02:39:44;;;;;;;8.23;3.95;;;0.10;54.90;;;;;;5107919;27;34314;-77
2022/01/12 02:39:57;;;;;;;6.88;4.35;;;0.10;55.20;;;;;;5108545;27;34554;-76
2022/01/12 02:42:25;;;;;;;15.27;4.93;;;0.10;55.10;;;;;;5088535;27;35928;-76
2022/01/12 02:55:38;;;;;;;8.45;3.75;;;0.10;55.20;;;;;;5123468;27;34235;-77
2022/01/12 02:58:04;;;;;;;5.95;4.00;;;0.10;55.30;;;;;;5105412;27;34265;-76
2022/01/12 03:00:46;;;;;;;5.60;3.67;;;0.20;55.20;;;;;;5105295;27;34408;-76
2022/01/12 03:03:20;;;;;;;5.68;4.00;;;0.20;55.30;;;;;;5109186;27;35920;-76
2022/01/12 03:05:55;;;;;;;13.52;4.60;;;0.20;55.10;;;;;;5093276;27;34479;-76
2022/01/12 03:08:24;;;;;;;9.82;4.57;;;0.20;55.00;;;;;;5092913;27;34272;-75
2022/01/12 03:10:50;;;;;;;5.57;3.88;;;0.20;55.10;;;;;;5110062;27;34394;-76
2022/01/12 03:13:17;;;;;;;7.32;4.57;;;0.20;55.10;;;;;;5107864;27;36657;-76
2022/01/12 03:15:43;;;;;;;8.32;4.30;;;0.20;54.90;;;;;;5126232;27;34222;-76
2022/01/12 03:18:09;;;;;;;7.00;4.90;;;0.20;54.80;;;;;;5092320;27;33798;-77
2022/01/12 03:20:38;;;;;;;7.93;4.97;;;0.20;54.80;;;;;;5091983;27;34288;-77
2022/01/12 03:23:04;;;;;;;14.52;4.38;;;0.20;55.00;;;;;;5108798;27;35628;-77
2022/01/12 03:25:30;;;;;;;7.50;4.47;;;0.20;55.80;;;;;;5108092;27;34143;-76
2022/01/12 03:28:01;;;;;;;6.28;4.07;;;0.30;55.20;;;;;;5108548;27;34382;-76
2022/01/12 03:30:34;;;;;;;6.97;4.28;;;0.30;55.00;;;;;;5108067;27;34150;-76
2022/01/12 03:33:09;;;;;;;6.70;4.10;;;0.20;55.00;;;;;;5107650;27;35711;-76
2022/01/12 03:35:49;;;;;;;10.68;4.32;;;0.20;54.80;;;;;;5092449;27;34276;-76
2022/01/12 03:38:23;;;;;;;6.60;3.83;;;0.20;55.00;;;;;;5110466;27;34319;-76
2022/01/12 03:40:50;;;;;;;9.07;4.32;;;0.20;54.70;;;;;;5107734;27;34315;-76
2022/01/12 03:43:17;;;;;;;8.13;4.70;;;0.10;54.70;;;;;;5090659;27;35705;-76
2022/01/12 03:45:46;;;;;;;8.52;4.50;;;0.10;55.00;;;;;;5125313;27;34405;-76
2022/01/12 03:48:13;;;;;;;13.85;4.32;;;0.10;54.90;;;;;;5108668;27;34306;-76
2022/01/12 03:50:40;;;;;;;10.15;4.65;;;0.10;54.80;;;;;;5126627;27;34553;-76
2022/01/12 03:53:06;;;;;;;5.53;3.92;;;0.10;54.70;;;;;;5107828;27;35539;-76
2022/01/12 03:55:32;;;;;;;7.60;4.75;;;0.00;54.90;;;;;;5126039;27;34287;-76
2022/01/12 03:57:58;;;;;;;12.57;4.97;;;0.00;55.00;;;;;;5108470;27;34248;-76
2022/01/12 04:00:25;;;;;;;9.45;4.18;;;0.10;55.10;;;;;;5091119;27;34172;-76
2022/01/12 04:02:51;;;;;;;15.73;4.40;;;0.00;54.90;;;;;;5108526;27;34160;-76
2022/01/12 04:05:29;;;;;;;12.77;3.83;;;0.00;54.80;;;;;;5090392;27;34209;-76
2022/01/12 04:10:37;;;;;;;20.95;4.30;;;-0.10;54.90;;;;;;5109856;27;34162;-76
2022/01/12 04:13:03;;;;;;;14.77;4.55;;;-0.20;55.00;;;;;;5106356;27;36158;-76
2022/01/12 04:15:29;;;;;;;10.00;3.88;;;-0.20;54.90;;;;;;5126358;27;34490;-76
2022/01/12 04:17:55;;;;;;;10.07;4.20;;;-0.20;55.00;;;;;;5107977;27;34456;-76
2022/01/12 04:20:21;;;;;;;10.65;4.20;;;-0.20;55.20;;;;;;5107675;27;34504;-76
2022/01/12 04:25:29;;;;;;;7.95;4.20;;;-0.20;55.00;;;;;;5125410;27;34131;-76
2022/01/12 04:27:55;;;;;;;7.40;4.40;;;-0.20;54.80;;;;;;5091007;27;34363;-76
2022/01/12 04:30:21;;;;;;;7.78;4.47;;;-0.20;55.00;;;;;;5107475;27;34243;-76
2022/01/12 04:32:48;;;;;;;6.60;4.07;;;-0.20;55.00;;;;;;5107635;27;34147;-76
2022/01/12 04:35:15;;;;;;;6.93;4.60;;;-0.30;54.90;;;;;;5107373;27;34290;-76
2022/01/12 04:37:42;;;;;;;5.53;4.00;;;-0.20;55.00;;;;;;5125231;27;34277;-76
2022/01/12 04:40:08;;;;;;;7.25;4.25;;;-0.20;55.20;;;;;;5090600;27;34475;-76
2022/01/12 04:42:35;;;;;;;8.95;3.58;;;-0.20;55.30;;;;;;5107479;27;35485;-76
2022/01/12 04:45:17;;;;;;;9.80;4.22;;;-0.20;55.30;;;;;;5125528;27;34268;-76
2022/01/12 04:50:27;;;;;;;8.27;4.35;;;-0.10;55.00;;;;;;5126065;27;34429;-76
2022/01/12 04:52:54;;;;;;;6.05;4.10;;;-0.10;54.70;;;;;;5089763;27;36795;-76
2022/01/12 04:55:20;;;;;;;5.43;3.95;;;-0.10;54.70;;;;;;5125535;27;34406;-76
2022/01/12 04:57:46;;;;;;;6.93;4.38;;;-0.10;54.70;;;;;;5107180;27;34336;-76
2022/01/12 05:00:15;;;;;;;5.88;4.03;;;-0.20;54.40;;;;;;5090015;27;34225;-77
2022/01/12 05:08:17;;;;;;;5.95;4.00;;;-0.10;54.70;;;;;;5124559;27;34401;-76
2022/01/12 05:13:26;;;;;;;6.18;4.22;;;-0.20;54.60;;;;;;5108417;27;34233;-76
2022/01/12 05:15:53;;;;;;;7.18;4.20;;;-0.20;54.70;;;;;;5090079;27;34265;-76
2022/01/12 05:18:19;;;;;;;7.78;3.90;;;-0.20;54.70;;;;;;5106659;27;34349;-76
2022/01/12 05:20:46;;;;;;;6.75;4.68;;;-0.20;54.70;;;;;;5106847;27;34428;-76
2022/01/12 05:23:13;;;;;;;6.65;4.28;;;-0.20;54.80;;;;;;5105314;27;36550;-76
2022/01/12 05:25:40;;;;;;;10.38;4.35;;;-0.20;54.90;;;;;;5106780;27;34059;-76
2022/01/12 05:28:07;;;;;;;7.40;4.50;;;-0.20;54.90;;;;;;5106658;27;34360;-76
2022/01/12 05:30:33;;;;;;;7.82;4.70;;;-0.20;54.80;;;;;;5106178;27;34396;-76
2022/01/12 05:33:00;;;;;;;6.10;3.97;;;-0.20;54.60;;;;;;5107277;27;34347;-76
2022/01/12 05:35:32;;;;;;;6.40;3.90;;;-0.20;54.50;;;;;;5124520;27;34174;-76
2022/01/12 05:37:59;;;;;;;8.63;4.60;;;-0.20;54.60;;;;;;5089821;27;34517;-76
2022/01/12 05:40:26;;;;;;;8.63;4.53;;;-0.30;54.70;;;;;;5106971;27;34240;-76
2022/01/12 05:42:53;;;;;;;7.28;4.32;;;-0.30;54.40;;;;;;5089279;27;35583;-76
2022/01/12 05:45:21;;;;;;;5.07;3.78;;;-0.30;54.30;;;;;;5106355;27;34270;-76
2022/01/12 05:50:30;;;;;;;8.80;4.55;;;-0.30;54.30;;;;;;5110307;27;34110;-76
2022/01/12 05:52:56;;;;;;;5.18;3.50;;;-0.30;54.20;;;;;;5106390;27;35576;-76
2022/01/12 05:55:22;;;;;;;4.32;3.40;;;-0.30;54.30;;;;;;5088993;27;34284;-76
2022/01/12 05:57:48;;;;;;;5.82;3.75;;;-0.30;54.50;;;;;;5106409;27;34227;-76
2022/01/12 06:00:17;;;;;;;6.05;3.60;;;-0.30;54.50;;;;;;5089584;27;34100;-76
2022/01/12 06:02:43;;;;;;;6.90;4.03;;;-0.30;54.40;;;;;;5105599;27;36506;-77
2022/01/12 06:05:09;;;;;;;7.60;4.13;;;-0.30;54.20;;;;;;5106041;27;34934;-77
2022/01/12 06:07:36;;;;;;;5.35;3.50;;;-0.40;54.00;;;;;;5124730;27;34155;-76
2022/01/12 06:10:02;;;;;;;5.82;3.53;;;-0.40;54.10;;;;;;5105842;27;34204;-76
2022/01/12 06:12:28;;;;;;;4.63;3.00;;;-0.40;54.10;;;;;;5105392;27;36567;-76
2022/01/12 06:14:54;;;;;;;5.93;3.70;;;-0.40;54.10;;;;;;5102626;28;34293;-77
2022/01/12 06:17:22;;;;;;;5.82;3.72;;;-0.40;53.90;;;;;;5102664;28;34461;-77
2022/01/12 06:19:48;;;;;;;5.15;3.33;;;-0.40;54.00;;;;;;5102572;28;34210;-76
2022/01/12 06:22:14;;;;;;;6.30;3.28;;;-0.40;54.00;;;;;;5102083;28;35847;-76
2022/01/12 06:24:40;;;;;;;6.45;3.95;;;-0.50;53.90;;;;;;5101917;28;34094;-76
2022/01/12 06:27:09;;;;;;;6.88;4.32;;;-0.50;53.90;;;;;;5101931;28;34327;-76
2022/01/12 06:29:42;;;;;;;6.38;3.92;;;-0.60;54.00;;;;;;5070198;28;34500;-77
2022/01/12 06:32:09;;;;;;;8.55;4.20;;;-0.50;54.40;;;;;;5103623;28;35020;-77
2022/01/12 06:34:36;;;;;;;7.85;4.50;;;-0.60;54.50;;;;;;5104825;27;33658;-77
2022/01/12 06:37:02;;;;;;;5.32;3.83;;;-0.60;54.70;;;;;;5104825;28;34099;-77
2022/01/12 06:39:28;;;;;;;7.28;3.97;;;-0.50;54.90;;;;;;5107353;27;34173;-77
2022/01/12 06:41:55;;;;;;;7.05;4.38;;;-0.50;54.90;;;;;;5105570;28;35635;-76
2022/01/12 06:44:22;;;;;;;6.65;4.15;;;-0.50;54.90;;;;;;5106268;28;34190;-76
2022/01/12 06:46:51;;;;;;;7.53;5.07;;;-0.50;55.00;;;;;;5105908;28;34109;-76
2022/01/12 06:49:17;;;;;;;8.45;4.40;;;-0.50;55.10;;;;;;5105954;28;34252;-76
2022/01/12 06:51:45;;;;;;;8.40;4.80;;;-0.60;54.80;;;;;;5105727;27;34389;-76
2022/01/12 06:54:12;;;;;;;6.68;4.55;;;-0.50;55.00;;;;;;5105811;28;34428;-76
2022/01/12 06:56:39;;;;;;;6.60;4.28;;;-0.60;54.90;;;;;;5087779;28;34317;-77
2022/01/12 06:59:06;;;;;;;6.72;4.45;;;-0.60;54.80;;;;;;5106032;28;34576;-76
2022/01/12 07:01:33;;;;;;;6.90;4.00;;;-0.60;55.00;;;;;;5104845;28;36328;-76
2022/01/12 07:03:59;;;;;;;6.38;4.20;;;-0.60;54.80;;;;;;5104617;28;34232;-77
2022/01/12 07:06:25;;;;;;;7.22;4.65;;;-0.50;54.60;;;;;;5104868;28;34291;-77
2022/01/12 07:08:51;;;;;;;7.13;4.35;;;-0.50;54.80;;;;;;5106841;27;34429;-77
2022/01/12 07:11:17;;;;;;;6.85;4.60;;;-0.50;54.80;;;;;;5104989;28;36751;-76
2022/01/12 07:13:44;;;;;;;7.18;4.20;;;-0.50;54.90;;;;;;5087233;28;34124;-76
2022/01/12 07:16:11;;;;;;;6.70;4.50;;;-0.50;54.80;;;;;;5088404;28;34116;-76
2022/01/12 07:18:38;;;;;;;6.38;4.13;;;-0.50;54.50;;;;;;5104658;28;34177;-76
2022/01/12 07:21:04;;;;;;;6.93;4.07;;;-0.50;54.50;;;;;;5104942;28;35681;-76
2022/01/12 07:23:30;;;;;;;5.93;4.28;;;-0.50;54.50;;;;;;5104791;28;34445;-77
2022/01/12 07:25:56;;;;;;;4.90;3.63;;;-0.50;54.50;;;;;;5088116;28;34312;-77
2022/01/12 07:28:23;;;;;;;7.55;4.78;;;-0.50;54.50;;;;;;5105672;27;34262;-77
2022/01/12 07:30:50;;;;;;;7.82;4.80;;;-0.50;54.50;;;;;;5105849;27;34244;-77
2022/01/12 07:33:16;;;;;;;7.28;4.22;;;-0.50;54.40;;;;;;5104468;28;34143;-77
2022/01/12 07:35:43;;;;;;;8.52;4.65;;;-0.50;54.50;;;;;;5104911;28;34044;-77
2022/01/12 07:38:09;;;;;;;6.00;3.95;;;-0.50;54.50;;;;;;5105401;27;34474;-77
2022/01/12 07:40:35;;;;;;;7.63;5.28;;;-0.50;54.40;;;;;;5105320;28;35761;-77
2022/01/12 07:43:03;;;;;;;7.07;4.72;;;-0.60;54.50;;;;;;5104874;28;34134;-77
2022/01/12 07:45:29;;;;;;;9.88;5.10;;;-0.60;54.50;;;;;;5106090;27;34276;-76
2022/01/12 07:47:56;;;;;;;6.30;4.40;;;-0.60;54.70;;;;;;5104638;27;34515;-77
2022/01/12 07:50:22;;;;;;;5.82;4.07;;;-0.60;54.70;;;;;;5087541;28;36042;-77
2022/01/12 07:52:53;;;;;;;6.63;4.25;;;-0.50;54.80;;;;;;5087649;28;34436;-77
2022/01/12 07:55:21;;;;;;;6.97;4.32;;;-0.50;54.40;;;;;;5104582;28;34550;-76
2022/01/12 07:57:48;;;;;;;7.32;4.97;;;-0.50;54.50;;;;;;5105247;28;34292;-76
2022/01/12 08:00:17;;;;;;;6.57;4.78;;;-0.50;54.50;;;;;;5104514;28;36700;-77
2022/01/12 08:02:43;;;;;;;7.15;4.43;;;-0.50;54.60;;;;;;5087410;28;34281;-77
2022/01/12 08:05:10;;;;;;;6.10;4.13;;;-0.50;54.50;;;;;;5105349;28;34408;-77
2022/01/12 08:07:38;;;;;;;8.60;4.53;;;-0.50;54.60;;;;;;5072090;28;34096;-77
2022/01/12 08:10:06;;;;;;;9.02;5.30;;;-0.40;54.50;;;;;;5105234;28;35588;-77
2022/01/12 08:12:33;;;;;;;8.18;5.03;;;-0.40;54.70;;;;;;5088334;28;34162;-77
2022/01/12 08:14:59;;;;;;;8.02;4.90;;;-0.40;54.60;;;;;;5105217;28;34391;-76
2022/01/12 08:17:25;;;;;;;7.53;4.82;;;-0.40;54.40;;;;;;5105440;27;34044;-76
2022/01/12 08:19:54;;;;;;;7.07;4.50;;;-0.40;54.30;;;;;;5105456;28;35855;-76
2022/01/12 08:22:20;;;;;;;8.40;4.97;;;-0.40;54.40;;;;;;5105933;28;34056;-76
2022/01/12 08:24:46;;;;;;;9.70;5.40;;;-0.40;54.40;;;;;;5105621;28;34379;-77
2022/01/12 08:27:12;;;;;;;9.05;5.53;;;-0.40;54.20;;;;;;5105808;28;34590;-77
2022/01/12 08:29:39;;;;;;;8.35;5.47;;;-0.30;54.60;;;;;;5105073;28;35518;-77
2022/01/12 08:32:06;;;;;;;7.18;4.60;;;-0.30;54.70;;;;;;5106881;27;34168;-77
2022/01/12 08:34:32;;;;;;;7.97;5.43;;;-0.30;54.40;;;;;;5088388;28;34170;-77
2022/01/12 08:36:59;;;;;;;8.65;5.32;;;-0.30;54.50;;;;;;5088315;28;34029;-76
2022/01/12 08:39:25;;;;;;;8.80;5.30;;;-0.30;54.30;;;;;;5104724;28;35836;-77
2022/01/12 08:41:51;;;;;;;7.82;5.35;;;-0.30;54.20;;;;;;5088835;28;34054;-77
2022/01/12 08:44:17;;;;;;;7.80;5.30;;;-0.20;54.40;;;;;;5106884;27;34278;-77
2022/01/12 08:46:43;;;;;;;8.13;4.80;;;-0.20;54.40;;;;;;5106064;27;34278;-76
2022/01/12 08:49:09;;;;;;;9.68;5.93;;;-0.20;54.30;;;;;;5087703;28;35532;-76
2022/01/12 08:51:36;;;;;;;7.82;4.60;;;-0.10;54.40;;;;;;5104901;28;34151;-77
2022/01/12 08:54:08;;;;;;;8.52;4.78;;;-0.10;54.30;;;;;;5104932;28;34349;-76
2022/01/12 08:56:37;;;;;;;7.32;5.32;;;0.00;54.30;;;;;;5103634;28;34489;-77
2022/01/12 08:59:04;;;;;;;6.03;4.55;;;0.10;54.60;;;;;;5094770;28;35579;-77
2022/01/12 09:01:30;;;;;;;7.03;4.72;;;0.20;54.10;;;;;;5065836;28;34173;-77
2022/01/12 09:03:56;;;;;;;8.50;4.85;;;0.30;53.80;;;;;;5064245;28;34340;-77
2022/01/12 09:06:22;;;;;;;8.13;4.60;;;0.30;54.20;;;;;;5063260;28;34247;-77
2022/01/12 09:08:49;;;;;;;7.70;4.72;;;0.30;53.70;;;;;;5062432;28;36583;-76
2022/01/12 09:11:18;;;;;;;7.70;5.10;;;0.30;53.80;;;;;;5062271;28;34291;-77
2022/01/12 09:13:45;;;;;;;7.53;5.07;;;0.30;53.90;;;;;;5067511;28;34108;-77
2022/01/12 09:16:12;;;;;;;6.88;5.00;;;0.40;54.00;;;;;;5084223;28;34093;-77
2022/01/12 09:18:39;;;;;;;7.07;5.00;;;0.40;54.70;;;;;;5099531;28;36177;-77
2022/01/12 09:21:06;;;;;;;8.30;4.90;;;0.40;53.90;;;;;;5100625;28;34216;-77
2022/01/12 09:23:33;;;;;;;6.82;4.57;;;0.40;54.00;;;;;;5100928;28;34156;-77
2022/01/12 09:25:59;;;;;;;9.18;4.90;;;0.50;54.00;;;;;;5100622;28;34032;-77
2022/01/12 09:28:26;;;;;;;6.07;4.68;;;0.50;53.90;;;;;;5100496;28;35842;-77
2022/01/12 09:30:52;;;;;;;6.82;5.18;;;0.50;54.00;;;;;;5084774;28;34369;-77
2022/01/12 09:33:19;;;;;;;9.40;5.47;;;0.50;53.60;;;;;;5083499;28;34305;-77
2022/01/12 09:35:47;;;;;;;7.82;4.70;;;0.60;53.70;;;;;;5100986;28;34229;-77
2022/01/12 09:38:14;;;;;;;8.18;4.63;;;0.60;53.50;;;;;;5100423;28;35814;-77
2022/01/12 09:40:40;;;;;;;6.93;4.88;;;0.70;53.60;;;;;;5101780;28;34522;-77
2022/01/12 09:43:07;;;;;;;6.05;4.55;;;0.70;53.60;;;;;;5100320;28;34318;-76
2022/01/12 09:45:33;;;;;;;10.70;5.70;;;0.80;53.50;;;;;;5100184;28;34141;-76
2022/01/12 09:47:59;;;;;;;6.97;4.93;;;0.90;53.90;;;;;;5083978;28;35491;-77
2022/01/12 09:50:26;;;;;;;7.43;4.53;;;0.90;53.60;;;;;;5100177;28;34125;-76
2022/01/12 09:52:52;;;;;;;7.38;5.55;;;1.00;53.30;;;;;;5084421;28;34105;-76
2022/01/12 09:55:20;;;;;;;8.90;4.93;;;1.00;53.60;;;;;;5100249;28;34575;-76
2022/01/12 09:57:46;;;;;;;8.52;5.15;;;1.20;54.00;;;;;;5113245;27;34145;-76
2022/01/12 10:00:15;;;;;;;8.82;5.20;;;1.30;53.70;;;;;;5124318;27;34347;-77
2022/01/12 10:02:42;;;;;;;7.82;5.22;;;1.50;53.50;;;;;;5125060;27;34119;-76
2022/01/12 10:05:10;;;;;;;5.85;4.47;;;1.60;53.00;;;;;;5123689;27;34175;-77
2022/01/12 10:07:37;;;;;;;5.95;4.72;;;1.80;53.00;;;;;;5123270;27;36436;-77
2022/01/12 10:10:07;;;;;;;6.97;5.13;;;2.00;53.00;;;;;;5124628;27;34266;-77
2022/01/12 10:12:33;;;;;;;6.88;5.32;;;2.10;52.80;;;;;;5110120;27;34295;-77
2022/01/12 10:15:06;;;;;;;7.82;5.22;;;2.20;52.80;;;;;;5109841;27;34722;-77
2022/01/12 10:17:39;;;;;;;6.63;4.85;;;2.30;53.00;;;;;;5127224;27;34567;-77
2022/01/12 10:20:18;;;;;;;7.60;4.97;;;2.40;52.70;;;;;;5127384;27;34271;-77
2022/01/12 10:22:57;;;;;;;6.32;4.75;;;2.50;52.70;;;;;;5127144;27;34469;-77
2022/01/12 10:25:24;;;;;;;9.15;5.50;;;2.50;52.80;;;;;;5111559;27;34306;-77
2022/01/12 10:27:50;;;;;;;8.10;5.60;;;2.70;52.90;;;;;;5128209;27;34176;-77
2022/01/12 10:30:22;;;;;;;9.25;5.85;;;2.90;52.90;;;;;;5109870;27;34253;-76
2022/01/12 10:33:10;;;;;;;7.65;5.32;;;3.20;52.90;;;;;;5099519;28;34145;-76
2022/01/12 10:35:40;;;;;;;7.55;5.18;;;3.40;51.50;;;;;;5092750;28;34153;-77
2022/01/12 10:38:12;;;;;;;6.60;5.10;;;3.70;52.30;;;;;;5089373;28;35966;-75
2022/01/12 10:40:56;;;;;;;6.60;4.72;;;3.80;51.80;;;;;;5112441;27;34087;-76
2022/01/12 10:43:37;;;;;;;7.78;5.07;;;4.00;51.40;;;;;;5126532;27;34099;-76
2022/01/12 10:46:07;;;;;;;7.65;5.20;;;4.10;51.80;;;;;;5086311;28;34483;-75
2022/01/12 10:48:51;;;;;;;8.18;5.35;;;4.30;52.20;;;;;;5086242;28;35067;-75
2022/01/12 10:51:20;;;;;;;7.63;4.75;;;4.60;51.40;;;;;;5074247;28;33987;-75
2022/01/12 10:53:48;;;;;;;7.50;4.57;;;4.80;51.80;;;;;;5106024;28;34158;-75
2022/01/12 10:56:16;;;;;;;7.20;4.97;;;5.10;51.10;;;;;;5089303;28;33962;-75
2022/01/12 10:58:44;;;;;;;6.43;5.25;;;5.20;50.70;;;;;;5105951;28;36251;-75
2022/01/12 11:01:12;;;;;;;6.70;5.00;;;5.10;50.80;;;;;;5088025;28;34178;-75
2022/01/12 11:03:39;;;;;;;6.50;5.30;;;5.10;50.90;;;;;;5104269;28;34407;-75
2022/01/12 11:06:07;;;;;;;7.03;5.00;;;5.10;51.20;;;;;;5105440;28;34306;-75
2022/01/12 11:08:34;;;;;;;6.50;4.90;;;5.10;50.90;;;;;;5086955;28;35687;-75
2022/01/12 11:11:01;;;;;;;8.07;5.55;;;5.00;51.50;;;;;;5087490;28;34174;-75
2022/01/12 11:13:28;;;;;;;8.27;4.75;;;4.90;50.90;;;;;;5105176;27;34194;-75
2022/01/12 11:15:56;;;;;;;8.38;4.97;;;4.80;50.80;;;;;;5108174;27;34180;-75
2022/01/12 11:18:26;;;;;;;7.78;5.50;;;4.80;51.30;;;;;;5106721;27;35781;-75
2022/01/12 11:20:58;;;;;;;6.55;4.68;;;4.80;51.50;;;;;;5125508;27;34407;-75
2022/01/12 11:23:36;;;;;;;6.75;5.28;;;4.80;51.40;;;;;;5089843;27;34208;-75
2022/01/12 11:26:27;;;;;;;6.95;5.10;;;4.70;51.40;;;;;;5091503;27;34284;-75
2022/01/12 11:28:54;;;;;;;7.95;5.22;;;4.70;51.60;;;;;;5092079;27;36394;-75
2022/01/12 11:31:25;;;;;;;7.43;5.18;;;4.70;51.60;;;;;;5107482;27;34313;-75
2022/01/12 11:33:52;;;;;;;7.57;5.03;;;4.80;51.90;;;;;;5107854;27;34325;-75
2022/01/12 11:36:24;;;;;;;6.55;5.10;;;4.90;52.00;;;;;;5107511;27;34225;-75
2022/01/12 11:39:08;;;;;;;8.25;4.80;;;5.00;51.90;;;;;;5107050;27;36059;-76
2022/01/12 11:41:37;;;;;;;6.45;4.88;;;5.10;51.70;;;;;;5110370;27;34178;-76
2022/01/12 11:44:16;;;;;;;7.63;5.05;;;5.20;51.90;;;;;;5090463;27;34383;-76
2022/01/12 11:46:48;;;;;;;8.70;5.50;;;5.40;51.10;;;;;;5074570;27;34088;-75
2022/01/12 11:49:32;;;;;;;7.95;4.88;;;5.50;51.50;;;;;;5107448;27;36290;-75
2022/01/12 11:52:00;;;;;;;6.85;5.18;;;5.50;50.30;;;;;;5126603;27;34144;-75
2022/01/12 11:54:37;;;;;;;6.47;5.03;;;5.50;51.50;;;;;;5108557;27;34069;-75
2022/01/12 11:57:07;;;;;;;8.05;5.18;;;5.60;52.00;;;;;;5107861;27;34608;-75
2022/01/12 11:59:51;;;;;;;7.20;5.43;;;5.60;51.50;;;;;;5089446;27;35589;-76
2022/01/12 12:02:19;;;;;;;9.73;5.93;;;5.70;50.60;;;;;;5106830;27;34147;-75
2022/01/12 12:04:55;;;;;;;6.63;5.05;;;5.80;51.50;;;;;;5125277;27;34325;-76
2022/01/12 12:07:23;;;;;;;7.90;5.30;;;6.00;50.90;;;;;;5107078;27;34556;-75
2022/01/12 12:09:53;;;;;;;9.02;5.97;;;6.10;51.00;;;;;;5107031;27;35592;-75
2022/01/12 12:12:26;;;;;;;9.25;5.63;;;6.30;51.30;;;;;;5090673;27;34202;-75
2022/01/12 12:14:55;;;;;;;8.23;5.65;;;6.40;51.10;;;;;;5102561;28;35186;-75
2022/01/12 12:17:23;;;;;;;7.13;5.90;;;6.40;51.10;;;;;;5104442;28;34089;-76
2022/01/12 12:19:52;;;;;;;8.43;5.25;;;6.50;51.10;;;;;;5119194;27;35780;-75
2022/01/12 12:22:21;;;;;;;7.72;5.57;;;6.70;51.10;;;;;;5124000;27;34241;-76
2022/01/12 12:24:53;;;;;;;7.07;5.18;;;6.70;51.00;;;;;;5124855;27;34190;-75
2022/01/12 12:27:21;;;;;;;8.45;5.35;;;6.70;50.50;;;;;;5126205;27;34280;-75
2022/01/12 12:29:49;;;;;;;7.55;5.88;;;6.60;50.60;;;;;;5125060;27;36864;-75
2022/01/12 12:32:19;;;;;;;9.45;6.18;;;6.60;50.80;;;;;;5107067;27;34354;-76
2022/01/12 12:34:46;;;;;;;7.80;5.78;;;6.50;50.70;;;;;;5109874;27;34179;-76
2022/01/12 12:37:16;;;;;;;10.65;6.07;;;6.50;50.80;;;;;;5105321;27;34074;-75
2022/01/12 12:39:45;;;;;;;8.10;5.57;;;6.40;51.00;;;;;;5105064;28;35130;-75
2022/01/12 12:42:18;;;;;;;7.47;5.85;;;6.30;51.30;;;;;;5087258;28;34330;-75
2022/01/12 12:44:46;;;;;;;10.27;5.25;;;6.40;51.30;;;;;;5103968;28;34235;-76
2022/01/12 12:47:16;;;;;;;9.27;5.95;;;6.40;51.60;;;;;;5111506;27;34108;-76
2022/01/12 12:49:58;;;;;;;9.35;6.00;;;6.40;51.40;;;;;;5118871;27;34371;-76
2022/01/12 12:52:34;;;;;;;7.40;5.50;;;6.40;50.40;;;;;;5114834;27;34239;-76
2022/01/12 12:55:04;;;;;;;8.75;5.47;;;6.40;51.10;;;;;;5107788;27;34286;-76
2022/01/12 12:57:30;;;;;;;7.57;5.40;;;6.30;51.50;;;;;;5087193;27;33983;-76
2022/01/12 13:00:11;;;;;;;7.38;5.85;;;6.30;51.60;;;;;;5112561;27;34641;-76
2022/01/12 13:02:40;;;;;;;7.97;5.75;;;6.30;51.20;;;;;;5124363;27;34106;-76
2022/01/12 13:05:09;;;;;;;11.43;5.93;;;6.30;51.60;;;;;;5109460;27;34268;-75
2022/01/12 13:07:37;;;;;;;8.48;5.75;;;6.20;51.50;;;;;;5104491;28;34115;-76
2022/01/12 13:10:07;;;;;;;7.78;5.97;;;6.20;51.60;;;;;;5120333;27;34215;-76
2022/01/12 13:12:38;;;;;;;7.88;5.57;;;6.20;51.50;;;;;;5090391;27;34480;-76
2022/01/12 13:15:07;;;;;;;8.38;6.30;;;6.10;51.60;;;;;;5099034;27;34166;-76
2022/01/12 13:17:34;;;;;;;7.03;5.72;;;6.10;52.00;;;;;;5083190;28;34072;-76
2022/01/12 13:22:47;;;;;;;7.90;5.38;;;6.10;51.80;;;;;;5083652;28;34060;-76
2022/01/12 13:25:15;;;;;;;8.18;6.22;;;6.10;51.90;;;;;;5083540;28;34151;-76
2022/01/12 13:27:43;;;;;;;7.38;5.32;;;6.10;51.60;;;;;;5083562;28;34506;-76
2022/01/12 13:30:22;;;;;;;7.95;5.75;;;6.10;51.90;;;;;;5100123;28;35520;-76
2022/01/12 13:32:54;;;;;;;8.07;5.90;;;6.00;51.80;;;;;;5084357;28;34189;-76
2022/01/12 13:35:31;;;;;;;9.65;5.95;;;6.00;51.70;;;;;;5082629;28;34321;-76
2022/01/12 13:38:01;;;;;;;6.82;5.78;;;6.00;51.80;;;;;;5067335;28;34046;-75
2022/01/12 13:40:42;;;;;;;8.13;5.65;;;5.90;52.10;;;;;;5091035;28;35603;-75
2022/01/12 13:43:08;;;;;;;11.45;6.43;;;5.90;51.50;;;;;;5073241;28;34064;-76
2022/01/12 13:45:40;;;;;;;7.15;5.15;;;5.90;52.10;;;;;;5078640;28;34113;-76
2022/01/12 13:48:14;;;;;;;6.47;5.22;;;6.00;52.30;;;;;;5086872;28;34212;-76
2022/01/12 13:50:44;;;;;;;9.98;6.18;;;6.00;52.40;;;;;;5103745;27;34242;-76
2022/01/12 13:53:11;;;;;;;9.07;5.95;;;6.00;52.10;;;;;;5086671;28;34060;-76
2022/01/12 13:55:50;;;;;;;7.90;6.05;;;6.00;52.10;;;;;;5086228;28;34443;-75
2022/01/12 13:58:16;;;;;;;8.75;6.15;;;6.10;51.80;;;;;;5103410;28;34187;-75
2022/01/12 14:00:42;;;;;;;8.52;5.90;;;6.00;51.90;;;;;;5102890;28;35889;-75
2022/01/12 14:03:19;;;;;;;8.30;5.97;;;6.00;51.80;;;;;;5086157;28;34092;-75
2022/01/12 14:05:46;;;;;;;9.88;5.95;;;6.10;51.70;;;;;;5102797;28;34187;-75
2022/01/12 14:08:15;;;;;;;8.30;5.85;;;6.10;52.00;;;;;;5104297;27;34546;-76
2022/01/12 14:10:43;;;;;;;8.82;6.18;;;6.10;51.90;;;;;;5103183;28;34124;-76
2022/01/12 14:13:11;;;;;;;7.72;5.57;;;6.10;51.90;;;;;;5103990;27;34107;-75